Time;durP1;ratioP1;P1;durP2;ratioP2;P2;SDS_P1;SDS_P2;PMS_P1;PMS_P2;Temp;Humidity;BMP_temperature;BMP_pressure;BME280_temperature;BME280_humidity;BME280_pressure;Samples;Min_cycle;Max_cycle;Signal;HPM_P1;HPM_P2
2020/12/22 00:00:47;;;;;;;64.10;38.22;;;;;;;7.15;100.00;102540.25;5012501;28;20030;-74
2020/12/22 00:03:33;;;;;;;60.42;35.90;;;;;;;7.07;100.00;102547.00;5013317;28;20026;-72
2020/12/22 00:06:25;;;;;;;67.55;39.67;;;;;;;7.21;100.00;102545.59;5013071;28;20153;-71
2020/12/22 00:09:10;;;;;;;64.65;37.88;;;;;;;7.14;100.00;102543.66;5012143;28;20064;-73
2020/12/22 00:11:56;;;;;;;67.57;38.75;;;;;;;6.96;100.00;102540.59;5012724;28;20018;-74
2020/12/22 00:14:43;;;;;;;65.93;38.38;;;;;;;7.17;100.00;102535.94;5017284;28;20034;-73
2020/12/22 00:17:28;;;;;;;72.80;40.72;;;;;;;7.06;100.00;102535.66;5016651;28;20030;-72
2020/12/22 00:20:15;;;;;;;66.32;38.70;;;;;;;7.02;100.00;102539.03;5017340;28;20026;-72
2020/12/22 00:23:01;;;;;;;67.82;37.88;;;;;;;6.81;100.00;102542.81;5017013;28;20030;-73
2020/12/22 00:25:48;;;;;;;62.13;37.33;;;;;;;6.99;100.00;102548.50;5016587;28;20025;-72
2020/12/22 00:28:33;;;;;;;65.70;37.55;;;;;;;6.97;100.00;102544.97;5016238;28;20162;-73
2020/12/22 00:31:19;;;;;;;68.90;40.60;;;;;;;6.95;100.00;102547.53;5017749;28;20410;-73
2020/12/22 00:34:05;;;;;;;68.78;40.03;;;;;;;6.92;100.00;102552.69;5016764;28;20040;-73
2020/12/22 00:36:51;;;;;;;75.65;42.10;;;;;;;6.90;100.00;102553.47;5016673;28;20026;-72
2020/12/22 00:39:37;;;;;;;69.65;39.25;;;;;;;6.58;100.00;102554.31;5016754;28;20033;-72
2020/12/22 00:42:22;;;;;;;73.40;40.88;;;;;;;6.52;100.00;102560.25;5015998;28;20446;-72
2020/12/22 00:45:08;;;;;;;72.78;41.30;;;;;;;6.72;100.00;102564.28;5016453;28;20037;-71
2020/12/22 00:47:54;;;;;;;70.15;40.08;;;;;;;6.81;100.00;102572.34;5016155;28;20026;-73
2020/12/22 00:50:40;;;;;;;64.90;38.83;;;;;;;6.93;100.00;102564.88;5015380;28;20112;-72
2020/12/22 00:53:25;;;;;;;73.50;41.03;;;;;;;7.00;100.00;102566.81;5016155;28;20037;-73
2020/12/22 00:56:11;;;;;;;64.03;38.60;;;;;;;6.76;100.00;102557.44;5016317;28;20059;-73
2020/12/22 00:58:57;;;;;;;66.63;38.05;;;;;;;6.84;100.00;102562.03;5017089;28;20097;-72
2020/12/22 01:01:43;;;;;;;67.25;38.03;;;;;;;6.96;100.00;102561.47;5016978;28;20030;-73
2020/12/22 01:04:29;;;;;;;61.65;37.17;;;;;;;7.01;100.00;102562.44;5016356;28;20429;-72
2020/12/22 01:07:15;;;;;;;64.80;37.38;;;;;;;6.72;100.00;102566.91;5015820;28;20454;-72
2020/12/22 01:10:01;;;;;;;63.05;37.90;;;;;;;6.60;100.00;102568.28;5015883;28;20041;-73
2020/12/22 01:12:46;;;;;;;76.72;41.55;;;;;;;6.66;100.00;102560.59;5015587;28;20022;-73
2020/12/22 01:15:32;;;;;;;72.35;40.80;;;;;;;6.26;100.00;102565.56;5017467;28;20026;-73
2020/12/22 01:18:18;;;;;;;70.50;38.80;;;;;;;6.41;100.00;102572.06;5016111;28;20109;-71
2020/12/22 01:21:03;;;;;;;63.83;35.63;;;;;;;6.62;100.00;102563.97;5015907;28;20049;-71
2020/12/22 01:30:07;;;;;;;60.03;36.08;;;;;;;6.32;100.00;102574.41;6073753;22;20025;-72
2020/12/22 01:32:52;;;;;;;59.90;35.38;;;;;;;6.39;100.00;102567.66;4977195;28;20467;-72
2020/12/22 01:35:38;;;;;;;63.45;36.65;;;;;;;6.43;100.00;102559.97;4978087;28;20030;-72
2020/12/22 01:38:24;;;;;;;66.43;37.42;;;;;;;6.75;100.00;102560.88;4977588;28;20089;-73
2020/12/22 01:41:10;;;;;;;63.22;34.47;;;;;;;6.66;100.00;102552.78;4977766;28;20087;-73
2020/12/22 01:44:08;;;;;;;61.63;35.00;;;;;;;6.89;100.00;102550.00;4977405;28;20098;-72
2020/12/22 01:46:54;;;;;;;59.45;36.30;;;;;;;7.00;100.00;102548.56;4976658;28;20027;-73
2020/12/22 01:49:40;;;;;;;66.60;37.35;;;;;;;7.12;100.00;102553.19;4977103;28;20023;-72
2020/12/22 01:52:26;;;;;;;58.10;35.72;;;;;;;7.30;100.00;102551.03;4977752;28;20067;-74
2020/12/22 01:55:11;;;;;;;66.65;38.67;;;;;;;6.84;100.00;102550.72;4977097;28;20035;-74
2020/12/22 01:57:57;;;;;;;70.75;40.65;;;;;;;6.46;100.00;102547.03;4977522;28;20062;-72
2020/12/22 02:00:43;;;;;;;63.58;35.58;;;;;;;6.80;100.00;102544.53;4977011;28;20041;-72
2020/12/22 02:03:29;;;;;;;65.90;36.10;;;;;;;6.83;100.00;102546.34;4977529;28;20404;-73
2020/12/22 02:06:15;;;;;;;58.85;35.72;;;;;;;6.95;100.00;102551.88;4976590;28;20031;-73
2020/12/22 02:09:04;;;;;;;63.15;36.20;;;;;;;7.17;100.00;102548.97;4976994;28;20098;-72
2020/12/22 02:11:50;;;;;;;66.88;37.58;;;;;;;7.15;100.00;102550.69;4977033;28;20360;-73
2020/12/22 02:14:35;;;;;;;59.65;36.28;;;;;;;6.98;100.00;102539.81;4976708;28;20033;-73
2020/12/22 02:17:21;;;;;;;63.65;36.78;;;;;;;6.64;100.00;102544.97;4976455;28;20023;-74
2020/12/22 02:20:07;;;;;;;61.10;36.63;;;;;;;6.83;100.00;102539.38;4976583;28;20463;-72
2020/12/22 02:22:53;;;;;;;60.85;36.83;;;;;;;6.83;100.00;102531.56;4976369;28;20023;-73
2020/12/22 02:25:46;;;;;;;60.55;36.17;;;;;;;6.96;100.00;102535.41;4976543;28;20103;-72
2020/12/22 02:28:33;;;;;;;62.08;35.45;;;;;;;6.73;100.00;102529.59;4976332;28;20182;-72
2020/12/22 02:31:22;;;;;;;61.97;35.15;;;;;;;7.10;100.00;102528.78;4976324;28;20050;-73
2020/12/22 02:34:08;;;;;;;62.08;36.28;;;;;;;6.91;100.00;102523.97;4975791;28;20105;-72
2020/12/22 02:36:54;;;;;;;64.70;37.28;;;;;;;6.99;100.00;102531.13;4976054;28;20054;-72
2020/12/22 02:39:40;;;;;;;62.92;36.25;;;;;;;6.88;100.00;102526.50;4976823;28;20039;-73
2020/12/22 02:42:25;;;;;;;63.42;37.03;;;;;;;6.57;100.00;102534.31;4976552;28;20038;-73
2020/12/22 02:45:11;;;;;;;61.65;36.67;;;;;;;6.43;100.00;102533.06;4976314;28;20034;-73
2020/12/22 02:47:57;;;;;;;65.07;38.50;;;;;;;6.94;100.00;102537.06;4976962;28;20030;-73
2020/12/22 02:50:42;;;;;;;71.88;40.60;;;;;;;6.56;100.00;102528.25;4976257;28;20058;-72
2020/12/22 02:53:28;;;;;;;68.45;38.22;;;;;;;6.36;100.00;102537.22;4976260;28;20476;-73
2020/12/22 02:56:14;;;;;;;77.50;42.67;;;;;;;6.54;100.00;102526.41;4976117;28;20126;-73
2020/12/22 02:59:00;;;;;;;71.45;40.33;;;;;;;6.90;100.00;102532.63;4976118;28;20436;-73
2020/12/22 03:01:45;;;;;;;68.07;38.35;;;;;;;6.53;100.00;102535.97;4976448;28;20034;-72
2020/12/22 03:04:31;;;;;;;64.53;37.95;;;;;;;6.71;100.00;102533.00;4976313;28;20033;-72
2020/12/22 03:07:17;;;;;;;62.22;37.42;;;;;;;7.14;100.00;102522.81;4976576;28;20101;-72
2020/12/22 03:10:07;;;;;;;65.60;37.75;;;;;;;6.95;100.00;102525.81;4976643;28;20027;-72
2020/12/22 03:12:52;;;;;;;67.78;40.25;;;;;;;6.89;100.00;102529.16;4976186;28;20022;-73
2020/12/22 03:15:38;;;;;;;67.28;37.28;;;;;;;6.83;100.00;102520.28;4975717;28;20031;-73
2020/12/22 03:18:24;;;;;;;64.07;36.47;;;;;;;6.99;100.00;102523.31;4976733;28;20027;-73
2020/12/22 03:21:10;;;;;;;64.05;38.72;;;;;;;6.90;100.00;102517.88;4976731;28;20066;-73
2020/12/22 03:23:55;;;;;;;68.07;38.88;;;;;;;6.85;100.00;102526.41;4977286;28;20467;-73
2020/12/22 03:26:41;;;;;;;69.15;38.95;;;;;;;7.02;100.00;102519.91;4976518;28;20348;-72
2020/12/22 03:29:27;;;;;;;65.32;37.28;;;;;;;6.82;100.00;102518.50;4975149;28;20097;-73
2020/12/22 03:32:12;;;;;;;69.65;39.08;;;;;;;6.77;100.00;102518.41;4977064;28;20137;-72
2020/12/22 03:34:58;;;;;;;60.63;37.85;;;;;;;6.72;100.00;102514.81;4976809;28;20452;-73
2020/12/22 03:37:44;;;;;;;72.85;39.83;;;;;;;6.42;100.00;102513.06;4976232;28;20042;-73
2020/12/22 03:40:30;;;;;;;60.00;34.60;;;;;;;6.58;100.00;102516.13;4975184;28;20447;-72
2020/12/22 03:43:16;;;;;;;67.53;39.00;;;;;;;6.82;100.00;102516.78;4975816;28;20458;-73
2020/12/22 03:46:05;;;;;;;68.40;39.65;;;;;;;6.81;100.00;102514.16;4976731;28;20037;-73
2020/12/22 03:48:51;;;;;;;72.78;40.60;;;;;;;6.80;100.00;102518.50;4979351;28;20031;-73
2020/12/22 03:51:37;;;;;;;66.45;37.30;;;;;;;6.94;100.00;102519.72;4979482;28;20371;-72
2020/12/22 03:54:23;;;;;;;72.18;39.00;;;;;;;6.71;100.00;102519.97;4979661;28;20367;-72
2020/12/22 03:57:09;;;;;;;69.68;39.05;;;;;;;6.83;100.00;102523.75;4979710;28;20054;-72
2020/12/22 03:59:54;;;;;;;66.07;38.00;;;;;;;6.80;100.00;102525.41;4979753;28;20465;-73
2020/12/22 04:02:40;;;;;;;68.47;38.15;;;;;;;6.72;100.00;102522.63;4979791;28;20053;-73
2020/12/22 04:05:26;;;;;;;72.78;39.35;;;;;;;6.95;100.00;102515.41;4980318;28;20459;-73
2020/12/22 04:08:11;;;;;;;73.05;39.28;;;;;;;6.65;100.00;102509.38;4981149;28;20451;-73
2020/12/22 04:10:57;;;;;;;65.10;37.17;;;;;;;6.50;100.00;102521.97;4981218;28;20047;-73
2020/12/22 04:13:43;;;;;;;72.15;39.25;;;;;;;6.93;100.00;102522.28;4980461;28;20117;-73
2020/12/22 04:16:29;;;;;;;67.13;37.03;;;;;;;6.74;100.00;102514.81;4981292;28;20026;-73
2020/12/22 04:19:15;;;;;;;70.47;39.35;;;;;;;6.53;100.00;102516.84;4982009;28;20042;-73
2020/12/22 04:22:01;;;;;;;67.18;37.63;;;;;;;6.97;100.00;102518.91;4983967;28;20038;-72
2020/12/22 04:24:47;;;;;;;67.80;37.78;;;;;;;6.87;100.00;102516.94;4984594;28;20035;-72
2020/12/22 04:27:33;;;;;;;72.28;39.88;;;;;;;6.76;100.00;102515.75;4984115;28;20427;-71
2020/12/22 04:30:19;;;;;;;69.68;37.58;;;;;;;6.97;100.00;102516.31;4982241;28;20058;-72
2020/12/22 04:33:04;;;;;;;75.93;39.40;;;;;;;6.57;100.00;102510.88;4982114;28;20110;-73
2020/12/22 04:35:50;;;;;;;74.30;39.47;;;;;;;6.35;100.00;102509.41;4982011;28;20042;-71
2020/12/22 04:38:36;;;;;;;70.05;37.08;;;;;;;6.36;100.00;102521.59;4982597;28;20371;-72
2020/12/22 04:41:22;;;;;;;66.85;36.67;;;;;;;7.07;100.00;102520.94;4984464;28;20113;-72
2020/12/22 04:44:08;;;;;;;72.28;39.63;;;;;;;6.39;100.00;102513.84;4983640;28;20070;-72
2020/12/22 04:46:54;;;;;;;77.70;40.72;;;;;;;6.55;100.00;102513.44;4981782;28;20027;-72
2020/12/22 04:49:43;;;;;;;72.93;39.45;;;;;;;6.82;100.00;102516.78;4979212;28;20058;-72
2020/12/22 04:52:29;;;;;;;68.25;38.40;;;;;;;6.77;100.00;102507.09;4978335;28;20027;-72
2020/12/22 04:55:15;;;;;;;71.22;39.38;;;;;;;7.03;100.00;102503.44;4978113;28;20364;-72
2020/12/22 04:58:01;;;;;;;72.22;38.10;;;;;;;7.10;100.00;102514.06;4977496;28;20035;-73
2020/12/22 05:00:46;;;;;;;73.78;40.25;;;;;;;7.04;100.00;102506.09;4977835;28;20092;-73
2020/12/22 05:03:32;;;;;;;68.28;37.95;;;;;;;7.00;100.00;102508.56;4979007;28;20034;-72
2020/12/22 05:06:18;;;;;;;70.18;37.45;;;;;;;7.02;100.00;102514.69;4981289;28;20526;-72
2020/12/22 05:09:04;;;;;;;74.57;40.50;;;;;;;7.04;100.00;102515.63;4983153;28;20038;-72
2020/12/22 05:11:49;;;;;;;71.05;38.47;;;;;;;6.91;100.00;102519.63;4981569;28;20023;-73
2020/12/22 05:14:35;;;;;;;74.68;40.88;;;;;;;7.03;100.00;102519.09;4979147;28;20037;-73
2020/12/22 05:17:21;;;;;;;68.22;37.72;;;;;;;6.77;100.00;102520.13;4977202;28;20030;-73
2020/12/22 05:20:10;;;;;;;71.45;38.92;;;;;;;6.06;100.00;102538.06;4978505;28;20371;-73
2020/12/22 05:22:55;;;;;;;72.88;39.05;;;;;;;6.37;100.00;102543.28;4977205;28;20043;-72
2020/12/22 05:25:46;;;;;;;81.07;42.03;;;;;;;6.23;100.00;102550.69;4977811;28;20069;-72
2020/12/22 05:28:32;;;;;;;79.43;43.20;;;;;;;6.21;100.00;102549.78;4977064;28;20041;-72
2020/12/22 05:31:18;;;;;;;82.53;43.80;;;;;;;6.02;100.00;102549.22;4977322;28;20108;-73
2020/12/22 05:34:09;;;;;;;91.63;48.60;;;;;;;5.90;100.00;102554.91;4977737;28;20034;-72
2020/12/22 05:36:58;;;;;;;84.47;46.85;;;;;;;5.83;100.00;102558.16;4976299;28;20124;-72
2020/12/22 05:39:44;;;;;;;85.22;46.75;;;;;;;6.33;100.00;102564.88;4977552;28;20383;-73
2020/12/22 05:42:31;;;;;;;82.47;45.33;;;;;;;6.13;100.00;102566.00;4977286;28;20022;-72
2020/12/22 05:45:16;;;;;;;86.78;48.38;;;;;;;6.61;100.00;102560.50;4977397;28;20045;-71
2020/12/22 05:48:04;;;;;;;88.20;46.05;;;;;;;6.60;100.00;102553.53;4977099;28;20036;-72
2020/12/22 05:50:51;;;;;;;75.28;41.78;;;;;;;6.88;100.00;102549.94;4977072;28;20027;-72
2020/12/22 05:53:45;;;;;;;84.25;43.95;;;;;;;6.30;100.00;102557.00;4976444;28;20034;-73
2020/12/22 05:56:32;;;;;;;83.32;46.08;;;;;;;6.50;100.00;102548.00;4976392;28;20344;-73
2020/12/22 05:59:19;;;;;;;83.60;45.13;;;;;;;6.40;100.00;102559.00;4976632;28;20472;-73
2020/12/22 06:02:06;;;;;;;82.03;43.30;;;;;;;6.11;100.00;102554.69;4976756;28;20468;-73
2020/12/22 06:04:54;;;;;;;87.40;45.83;;;;;;;5.97;100.00;102550.78;4977285;28;20035;-73
2020/12/22 06:07:40;;;;;;;79.82;44.17;;;;;;;6.29;100.00;102548.28;4976888;28;20030;-72
2020/12/22 06:10:25;;;;;;;85.47;45.55;;;;;;;6.46;100.00;102538.34;4976903;28;20348;-74
2020/12/22 06:13:12;;;;;;;86.45;45.83;;;;;;;6.90;100.00;102535.22;4976737;28;20160;-73
2020/12/22 06:16:00;;;;;;;79.70;42.30;;;;;;;6.81;100.00;102532.38;4976114;28;20085;-73
2020/12/22 06:18:51;;;;;;;80.82;43.33;;;;;;;6.89;100.00;102531.75;4976606;28;20114;-73
2020/12/22 06:21:37;;;;;;;77.50;41.67;;;;;;;6.72;100.00;102517.41;4976220;28;20054;-73
2020/12/22 06:24:23;;;;;;;76.40;40.67;;;;;;;6.74;100.00;102527.84;4976150;28;20039;-73
2020/12/22 06:27:10;;;;;;;76.18;39.35;;;;;;;6.53;100.00;102524.66;4976169;28;20114;-73
2020/12/22 06:29:56;;;;;;;76.55;40.03;;;;;;;6.73;100.00;102523.47;4975877;28;20093;-73
2020/12/22 06:32:42;;;;;;;74.55;40.45;;;;;;;6.54;100.00;102521.22;4976015;28;20134;-73
2020/12/22 06:35:29;;;;;;;82.95;44.40;;;;;;;6.72;100.00;102516.50;4977895;28;20027;-72
2020/12/22 06:38:15;;;;;;;87.80;48.05;;;;;;;6.58;100.00;102529.16;4977728;28;20034;-73
2020/12/22 06:41:00;;;;;;;83.35;45.22;;;;;;;6.93;100.00;102519.69;4976308;28;20023;-75
2020/12/22 06:43:47;;;;;;;85.88;44.90;;;;;;;6.85;100.00;102518.59;4976566;28;20034;-73
2020/12/22 06:46:32;;;;;;;81.28;46.20;;;;;;;7.01;100.00;102533.78;4975834;28;20031;-73
2020/12/22 06:49:50;;;;;;;77.90;44.65;;;;;;;7.15;100.00;102530.69;4975379;28;20057;-73
2020/12/22 06:52:45;;;;;;;78.07;42.40;;;;;;;6.77;100.00;102521.00;4976695;28;20050;-73
2020/12/22 06:55:50;;;;;;;82.60;45.03;;;;;;;7.00;100.00;102525.09;4975910;28;20030;-73
2020/12/22 06:58:36;;;;;;;76.10;40.95;;;;;;;6.57;100.00;102532.59;4975988;28;20077;-73
2020/12/22 07:01:33;;;;;;;71.55;39.38;;;;;;;6.52;100.00;102525.50;4974961;28;20027;-72
2020/12/22 07:04:23;;;;;;;81.10;42.13;;;;;;;7.07;100.00;102520.94;4975899;28;20045;-72
2020/12/22 07:07:09;;;;;;;74.22;41.17;;;;;;;7.20;100.00;102518.63;4976277;28;20033;-73
2020/12/22 07:10:05;;;;;;;76.50;42.83;;;;;;;7.11;100.00;102514.94;4975147;28;20031;-73
2020/12/22 07:12:54;;;;;;;101.47;52.45;;;;;;;6.68;100.00;102514.66;4975755;28;20034;-73
2020/12/22 07:15:43;;;;;;;110.18;57.45;;;;;;;6.70;100.00;102507.75;4975308;28;20041;-72
2020/12/22 07:18:30;;;;;;;117.50;60.95;;;;;;;6.63;100.00;102521.47;4974931;28;20026;-72
2020/12/22 07:21:16;;;;;;;104.10;57.90;;;;;;;6.89;100.00;102516.13;4975918;28;20035;-73
2020/12/22 07:24:02;;;;;;;102.95;57.13;;;;;;;6.97;100.00;102514.59;4975118;28;20061;-73
2020/12/22 07:26:48;;;;;;;94.40;52.50;;;;;;;7.02;100.00;102523.41;4975306;28;20022;-73
2020/12/22 07:29:41;;;;;;;86.47;48.55;;;;;;;7.16;100.00;102519.41;4975357;28;20038;-72
2020/12/22 07:32:27;;;;;;;88.55;48.88;;;;;;;6.87;100.00;102517.78;4975242;28;20148;-73
2020/12/22 07:35:13;;;;;;;85.90;45.90;;;;;;;7.41;100.00;102518.28;4975329;28;20049;-73
2020/12/22 07:38:07;;;;;;;86.38;46.50;;;;;;;6.51;100.00;102518.53;4975458;28;20027;-73
2020/12/22 07:40:53;;;;;;;82.85;44.40;;;;;;;6.89;100.00;102517.84;4974199;28;20065;-74
2020/12/22 07:43:38;;;;;;;84.07;46.83;;;;;;;6.82;100.00;102521.09;4975241;28;20027;-72
2020/12/22 07:46:24;;;;;;;86.28;47.83;;;;;;;7.01;100.00;102512.94;4975319;28;20470;-71
2020/12/22 07:49:12;;;;;;;102.47;54.35;;;;;;;7.09;100.00;102514.91;4974246;28;20022;-72
2020/12/22 07:51:57;;;;;;;99.95;54.08;;;;;;;7.50;100.00;102519.41;4975012;28;20448;-72
2020/12/22 07:54:44;;;;;;;113.55;59.30;;;;;;;7.21;100.00;102524.75;4974887;28;20363;-74
2020/12/22 07:57:30;;;;;;;107.22;57.90;;;;;;;7.25;100.00;102521.38;4974674;28;20471;-73
2020/12/22 08:00:19;;;;;;;110.80;57.72;;;;;;;7.16;100.00;102526.38;4974433;28;20061;-73
2020/12/22 08:03:16;;;;;;;102.68;55.05;;;;;;;7.36;100.00;102525.13;4974985;28;20031;-73
2020/12/22 08:06:03;;;;;;;90.20;51.22;;;;;;;7.65;100.00;102524.97;4974917;28;20459;-73
2020/12/22 08:08:59;;;;;;;90.15;49.38;;;;;;;7.32;100.00;102524.16;4974697;28;20105;-73
2020/12/22 08:11:45;;;;;;;110.05;59.13;;;;;;;7.04;100.00;102521.72;4974884;28;20023;-74
2020/12/22 08:14:32;;;;;;;98.88;53.55;;;;;;;7.23;100.00;102523.06;4974979;28;20058;-73
2020/12/22 08:17:22;;;;;;;90.38;48.88;;;;;;;7.46;100.00;102522.78;4974055;28;20086;-73
2020/12/22 08:20:08;;;;;;;98.80;52.80;;;;;;;7.03;100.00;102525.16;4974351;28;20452;-73
2020/12/22 08:22:54;;;;;;;96.93;51.70;;;;;;;7.73;100.00;102517.31;4973443;28;20085;-73
2020/12/22 08:25:40;;;;;;;92.85;47.58;;;;;;;7.32;100.00;102520.69;4974506;28;20026;-73
2020/12/22 08:28:26;;;;;;;94.28;47.42;;;;;;;6.87;100.00;102514.31;4975377;28;20444;-72
2020/12/22 08:31:17;;;;;;;95.65;47.55;;;;;;;7.00;100.00;102506.88;4973960;28;20472;-72
2020/12/22 08:34:05;;;;;;;85.35;43.95;;;;;;;6.99;100.00;102515.50;4976908;28;20027;-73
2020/12/22 08:36:51;;;;;;;98.25;46.92;;;;;;;7.45;100.00;102502.75;4978411;28;20031;-74
2020/12/22 08:39:41;;;;;;;88.53;45.30;;;;;;;7.41;100.00;102513.06;4978583;28;20054;-73
2020/12/22 08:42:28;;;;;;;87.32;44.42;;;;;;;7.18;100.00;102514.22;4978344;28;20075;-73
2020/12/22 08:45:13;;;;;;;86.28;43.60;;;;;;;7.23;100.00;102508.28;4978440;28;20062;-73
2020/12/22 08:47:59;;;;;;;89.63;44.55;;;;;;;7.07;100.00;102511.38;4978314;28;20054;-73
2020/12/22 08:50:52;;;;;;;84.82;43.97;;;;;;;7.08;100.00;102507.91;4978063;28;20110;-72
2020/12/22 08:53:49;;;;;;;83.60;41.55;;;;;;;7.47;100.00;102502.81;4978276;28;20455;-72
2020/12/22 08:56:39;;;;;;;83.57;40.90;;;;;;;7.20;100.00;102505.59;4977413;28;20027;-72
2020/12/22 08:59:28;;;;;;;79.75;40.78;;;;;;;7.33;100.00;102499.88;4977272;28;20407;-71
2020/12/22 09:02:30;;;;;;;69.57;36.80;;;;;;;7.25;100.00;102495.31;4977842;28;20038;-71
2020/12/22 09:05:17;;;;;;;77.57;39.92;;;;;;;7.75;100.00;102495.63;4977755;28;20371;-72
2020/12/22 09:08:05;;;;;;;74.43;37.80;;;;;;;7.49;100.00;102494.16;4977369;28;20030;-72
2020/12/22 09:10:50;;;;;;;80.90;39.08;;;;;;;7.44;100.00;102479.25;4977272;28;20114;-72
2020/12/22 09:13:36;;;;;;;78.35;38.55;;;;;;;7.72;100.00;102489.47;4977788;28;20051;-73
2020/12/22 09:16:22;;;;;;;79.10;38.80;;;;;;;7.83;100.00;102477.50;4977659;28;20038;-72
2020/12/22 09:19:08;;;;;;;79.70;42.55;;;;;;;7.96;100.00;102484.78;4977650;28;20109;-72
2020/12/22 09:21:59;;;;;;;75.40;38.00;;;;;;;8.07;100.00;102476.31;4977163;28;20077;-72
2020/12/22 09:24:45;;;;;;;84.28;43.35;;;;;;;7.31;100.00;102479.81;4976966;28;20041;-73
2020/12/22 09:27:32;;;;;;;75.70;38.28;;;;;;;7.30;100.00;102476.31;4978505;28;20483;-72
2020/12/22 09:30:17;;;;;;;77.75;37.35;;;;;;;7.48;100.00;102468.06;4977969;28;20047;-72
2020/12/22 09:33:03;;;;;;;69.13;37.33;;;;;;;7.96;100.00;102469.97;4977736;28;20054;-73
2020/12/22 09:35:49;;;;;;;73.45;39.28;;;;;;;8.26;100.00;102465.44;4977517;28;20482;-73
2020/12/22 09:38:34;;;;;;;75.60;40.88;;;;;;;8.27;100.00;102466.28;4977058;28;20034;-73
2020/12/22 09:41:20;;;;;;;72.60;37.95;;;;;;;7.41;100.00;102463.53;4976878;28;20031;-73
2020/12/22 09:44:06;;;;;;;77.60;39.67;;;;;;;7.88;100.00;102457.66;4976938;28;20117;-73
2020/12/22 09:46:54;;;;;;;74.05;38.58;;;;;;;7.64;100.00;102457.13;4977733;28;20031;-73
2020/12/22 09:49:40;;;;;;;71.13;37.47;;;;;;;7.86;100.00;102452.38;4977297;28;20026;-72
2020/12/22 09:52:26;;;;;;;66.30;34.90;;;;;;;7.46;100.00;102454.09;4976309;28;20395;-72
2020/12/22 09:55:12;;;;;;;68.85;34.42;;;;;;;7.41;100.00;102453.09;4976363;28;20105;-72
2020/12/22 09:57:58;;;;;;;68.07;33.80;;;;;;;7.21;100.00;102452.66;4978105;28;20427;-72
2020/12/22 10:00:44;;;;;;;64.45;33.30;;;;;;;7.21;100.00;102455.25;4976634;28;20031;-72
2020/12/22 10:03:29;;;;;;;60.58;31.80;;;;;;;7.46;100.00;102457.56;4977043;28;20029;-71
2020/12/22 10:06:17;;;;;;;72.00;38.33;;;;;;;7.55;100.00;102449.09;4976813;28;20122;-71
2020/12/22 10:09:03;;;;;;;67.13;34.63;;;;;;;7.65;100.00;102451.94;4976717;28;20386;-72
2020/12/22 10:11:49;;;;;;;67.07;33.65;;;;;;;7.83;100.00;102443.59;4975963;28;20030;-72
2020/12/22 10:14:35;;;;;;;62.00;31.15;;;;;;;7.24;100.00;102431.84;4976465;28;20026;-72
2020/12/22 10:17:20;;;;;;;69.45;33.25;;;;;;;7.11;100.00;102434.16;4976371;28;20109;-71
2020/12/22 10:20:06;;;;;;;60.85;31.42;;;;;;;7.50;100.00;102441.16;4976536;28;20031;-71
2020/12/22 10:22:52;;;;;;;57.60;29.73;;;;;;;7.63;100.00;102424.91;4976725;28;20038;-71
2020/12/22 10:25:38;;;;;;;65.57;32.03;;;;;;;7.38;100.00;102432.16;4976950;28;20069;-72
2020/12/22 10:28:24;;;;;;;57.55;29.88;;;;;;;7.54;100.00;102426.44;4975582;28;20359;-72
2020/12/22 10:31:19;;;;;;;58.63;30.25;;;;;;;7.93;100.00;102428.19;4975411;28;20046;-71
2020/12/22 10:34:05;;;;;;;55.97;31.77;;;;;;;7.78;100.00;102429.56;4976554;28;20026;-71
2020/12/22 10:36:51;;;;;;;56.03;30.73;;;;;;;7.69;100.00;102416.34;4975684;28;20101;-72
2020/12/22 10:39:36;;;;;;;64.20;31.08;;;;;;;8.07;100.00;102416.28;4976258;28;20109;-72
2020/12/22 10:42:22;;;;;;;60.63;31.27;;;;;;;7.54;100.00;102416.00;4976020;28;20027;-72
2020/12/22 10:45:08;;;;;;;56.92;32.05;;;;;;;7.83;100.00;102407.06;4975901;28;20469;-72
2020/12/22 10:47:54;;;;;;;59.40;32.92;;;;;;;7.93;100.00;102399.47;4975429;28;20096;-72
2020/12/22 10:50:40;;;;;;;56.70;31.05;;;;;;;7.99;100.00;102401.31;4975359;28;20065;-71
2020/12/22 10:53:26;;;;;;;54.90;30.30;;;;;;;7.73;100.00;102389.47;4976070;28;20114;-71
2020/12/22 10:56:16;;;;;;;55.40;29.88;;;;;;;7.63;100.00;102395.38;4975176;28;20027;-71
2020/12/22 10:59:02;;;;;;;51.60;28.20;;;;;;;7.95;100.00;102389.94;4976006;28;20497;-72
2020/12/22 11:01:50;;;;;;;58.35;32.80;;;;;;;7.81;100.00;102385.28;4975475;28;20102;-72
2020/12/22 11:04:36;;;;;;;59.58;32.22;;;;;;;7.78;100.00;102373.06;4975223;28;20036;-72
2020/12/22 11:10:19;;;;;;;48.85;28.10;;;;;;;7.46;100.00;102375.84;4976635;28;20371;-72
2020/12/22 11:13:05;;;;;;;54.58;29.23;;;;;;;7.85;100.00;102367.13;4975299;28;20018;-72
2020/12/22 11:15:51;;;;;;;52.58;28.95;;;;;;;7.98;100.00;102376.97;4976075;28;20066;-72
2020/12/22 11:18:40;;;;;;;51.95;29.30;;;;;;;7.93;100.00;102370.78;4974158;28;20027;-72
2020/12/22 11:21:26;;;;;;;56.47;30.27;;;;;;;8.11;100.00;102370.22;4974525;28;20037;-73
2020/12/22 11:24:11;;;;;;;59.90;31.92;;;;;;;7.94;100.00;102372.53;4975221;28;20026;-71
2020/12/22 11:26:57;;;;;;;53.97;29.35;;;;;;;7.84;100.00;102365.34;4975479;28;20034;-72
2020/12/22 11:29:43;;;;;;;52.80;30.10;;;;;;;8.08;100.00;102368.44;4975701;28;20055;-72
2020/12/22 11:32:29;;;;;;;52.67;29.48;;;;;;;8.40;100.00;102369.06;4975263;28;20074;-72
2020/12/22 11:35:15;;;;;;;52.97;30.10;;;;;;;8.39;100.00;102367.28;4974829;28;20041;-73
2020/12/22 11:38:01;;;;;;;54.90;29.67;;;;;;;8.27;100.00;102357.53;4974460;28;20022;-73
2020/12/22 11:40:46;;;;;;;55.80;29.35;;;;;;;8.11;100.00;102359.78;4974123;28;20037;-72
2020/12/22 11:43:33;;;;;;;54.30;30.02;;;;;;;8.22;100.00;102355.69;4974790;28;20073;-72
2020/12/22 11:46:20;;;;;;;50.85;27.40;;;;;;;8.07;100.00;102363.19;4975112;28;20089;-73
2020/12/22 11:49:06;;;;;;;50.92;28.23;;;;;;;7.89;100.00;102358.50;4974843;28;20112;-73
2020/12/22 11:51:58;;;;;;;53.92;29.98;;;;;;;7.97;100.00;102356.03;4975328;28;20027;-72
2020/12/22 11:54:43;;;;;;;51.83;28.80;;;;;;;7.65;100.00;102350.19;4974790;28;20035;-72
2020/12/22 11:57:29;;;;;;;52.78;28.65;;;;;;;8.18;100.00;102353.81;4976237;28;20085;-73
2020/12/22 12:00:15;;;;;;;50.05;27.63;;;;;;;7.86;100.00;102352.34;4975679;28;20030;-71
2020/12/22 12:03:01;;;;;;;54.22;27.40;;;;;;;7.97;100.00;102358.66;4975459;28;20061;-72
2020/12/22 12:05:47;;;;;;;55.50;27.90;;;;;;;7.91;100.00;102350.69;4974659;28;20034;-72
2020/12/22 12:08:32;;;;;;;51.67;27.38;;;;;;;8.16;100.00;102342.50;4978006;28;20030;-72
2020/12/22 12:11:18;;;;;;;53.15;27.52;;;;;;;7.48;100.00;102343.72;4978574;28;20022;-73
2020/12/22 12:14:04;;;;;;;52.08;28.90;;;;;;;7.91;100.00;102348.06;4979783;28;20027;-72
2020/12/22 12:16:50;;;;;;;53.55;30.88;;;;;;;7.62;100.00;102341.41;4979146;28;20034;-72
2020/12/22 12:19:36;;;;;;;50.20;28.00;;;;;;;7.54;100.00;102341.28;4978558;28;20033;-72
2020/12/22 12:22:25;;;;;;;51.15;28.52;;;;;;;7.97;100.00;102340.38;4977900;28;20027;-72
2020/12/22 12:25:11;;;;;;;53.95;29.85;;;;;;;8.10;100.00;102337.13;4977783;28;20101;-72
2020/12/22 12:27:57;;;;;;;52.13;29.33;;;;;;;8.07;100.00;102332.75;4978424;28;20478;-72
2020/12/22 12:30:43;;;;;;;47.92;26.85;;;;;;;7.67;100.00;102327.63;4977954;28;20083;-72
2020/12/22 12:33:29;;;;;;;50.17;28.75;;;;;;;7.76;100.00;102324.31;4978727;28;20056;-72
2020/12/22 12:36:14;;;;;;;53.92;29.20;;;;;;;7.91;100.00;102314.16;4978267;28;20049;-72
2020/12/22 12:39:02;;;;;;;54.88;30.30;;;;;;;7.89;100.00;102319.38;4978286;28;20027;-72
2020/12/22 12:41:49;;;;;;;54.00;30.95;;;;;;;7.98;100.00;102310.81;4978138;28;20110;-72
2020/12/22 12:44:34;;;;;;;52.70;28.98;;;;;;;7.86;100.00;102306.25;4977639;28;20451;-72
2020/12/22 12:47:21;;;;;;;53.75;27.42;;;;;;;7.90;100.00;102296.75;4977537;28;20408;-72